TimeEST,TemperatureF,Dew PointF,Humidity,Sea Level PressureIn,VisibilityMPH,Wind Direction,Wind SpeedMPH,Gust SpeedMPH,PrecipitationIn,Events,Conditions,WindDirDegrees,DateUTC
12:40 AM,46.4,44.6,93,30.03,10.0,South,3.5,-,N/A,,Overcast,180,2013-12-10 05:40:00
12:52 AM,46.0,45.0,96,30.03,7.0,South,3.5,-,N/A,,Overcast,170,2013-12-10 05:52:00
1:52 AM,46.0,46.0,100,30.01,9.0,South,3.5,-,N/A,,Overcast,170,2013-12-10 06:52:00
2:52 AM,46.9,46.0,97,29.98,4.0,Calm,Calm,-,0.00,,Overcast,0,2013-12-10 07:52:00
3:21 AM,46.4,46.4,100,29.97,6.0,Calm,Calm,-,0.00,,Light Drizzle,0,2013-12-10 08:21:00
3:48 AM,46.4,46.4,100,29.98,3.0,Calm,Calm,-,0.00,,Light Drizzle,0,2013-12-10 08:48:00
3:52 AM,46.9,46.9,100,29.98,2.5,Calm,Calm,-,0.00,,Light Drizzle,0,2013-12-10 08:52:00
4:01 AM,46.4,46.4,100,29.96,0.8,South,4.6,-,0.00,,Light Drizzle,170,2013-12-10 09:01:00
4:38 AM,46.4,46.4,100,29.96,1.0,Calm,Calm,-,0.00,,Light Drizzle,0,2013-12-10 09:38:00
4:52 AM,46.9,46.9,100,29.95,1.0,SSE,3.5,-,0.00,,Light Drizzle,160,2013-12-10 09:52:00
5:35 AM,46.4,46.4,100,29.94,0.2,Calm,Calm,-,0.00,,Light Drizzle,0,2013-12-10 10:35:00
5:52 AM,46.9,46.9,100,29.95,0.2,Calm,Calm,-,0.00,,Light Drizzle,0,2013-12-10 10:52:00
6:52 AM,46.9,46.9,100,29.92,0.2,Calm,Calm,-,0.01,,Overcast,0,2013-12-10 11:52:00
7:52 AM,46.0,46.0,100,29.98,0.5,WNW,15.0,20.7,0.02,,Light Drizzle,300,2013-12-10 12:52:00
8:00 AM,44.6,44.6,100,29.95,1.2,Variable,3.5,19.6,0.03,,Light Drizzle,0,2013-12-10 13:00:00
8:13 AM,44.6,44.6,100,29.94,4.0,East,4.6,-,0.10,Rain,Rain,100,2013-12-10 13:13:00
8:52 AM,46.0,46.0,100,29.95,4.0,NNW,6.9,-,0.11,,Overcast,330,2013-12-10 13:52:00
8:54 AM,46.4,46.4,100,29.95,10.0,NNW,4.6,-,N/A,,Overcast,330,2013-12-10 13:54:00
9:12 AM,46.4,46.4,100,29.96,10.0,NW,3.5,-,N/A,,Overcast,310,2013-12-10 14:12:00
9:25 AM,46.4,46.4,100,29.96,8.0,NNW,3.5,-,0.00,Rain,Light Rain,340,2013-12-10 14:25:00
9:52 AM,46.9,46.0,97,29.98,2.5,NNW,5.8,-,0.00,,Overcast,330,2013-12-10 14:52:00
10:52 AM,46.9,46.9,100,29.99,1.5,NW,4.6,-,0.00,,Overcast,320,2013-12-10 15:52:00
11:20 AM,48.2,46.4,93,30.00,3.0,NNW,4.6,-,N/A,,Overcast,330,2013-12-10 16:20:00
11:52 AM,48.0,46.9,96,30.03,3.0,NNW,6.9,-,N/A,,Overcast,330,2013-12-10 16:52:00
12:24 PM,50.0,46.4,87,30.03,10.0,NNW,5.8,-,N/A,,Overcast,330,2013-12-10 17:24:00
12:52 PM,50.0,46.9,89,30.05,10.0,NNW,8.1,-,N/A,,Overcast,330,2013-12-10 17:52:00
1:21 PM,51.8,48.2,88,30.06,10.0,NNW,8.1,-,N/A,,Overcast,330,2013-12-10 18:21:00
1:52 PM,55.0,48.0,77,30.06,10.0,NNW,9.2,-,N/A,,Mostly Cloudy,340,2013-12-10 18:52:00
2:06 PM,53.6,44.6,72,30.07,10.0,NNW,10.4,-,N/A,,Mostly Cloudy,330,2013-12-10 19:06:00
2:52 PM,55.0,34.0,45,30.09,10.0,NW,16.1,21.9,N/A,,Mostly Cloudy,310,2013-12-10 19:52:00
3:52 PM,53.1,28.9,40,30.13,10.0,NW,15.0,24.2,N/A,,Scattered Clouds,320,2013-12-10 20:52:00
4:52 PM,48.0,23.0,37,30.17,10.0,NW,10.4,-,N/A,,Scattered Clouds,320,2013-12-10 21:52:00
5:52 PM,44.1,24.1,45,30.21,10.0,NW,5.8,-,N/A,,Scattered Clouds,320,2013-12-10 22:52:00
6:52 PM,42.1,26.1,53,30.25,10.0,NNW,8.1,-,N/A,,Partly Cloudy,330,2013-12-10 23:52:00
7:52 PM,39.0,25.0,57,30.28,10.0,NW,5.8,-,N/A,,Clear,320,2013-12-11 00:52:00
8:52 PM,35.1,24.1,64,30.31,10.0,North,4.6,-,N/A,,Partly Cloudy,360,2013-12-11 01:52:00
9:52 PM,32.0,24.1,73,30.32,10.0,North,6.9,-,N/A,,Clear,10,2013-12-11 02:52:00
10:52 PM,33.1,24.1,70,30.33,10.0,NNW,5.8,-,N/A,,Clear,340,2013-12-11 03:52:00
11:52 PM,33.1,23.0,66,30.34,10.0,NNW,4.6,-,N/A,,Clear,330,2013-12-11 04:52:00